createdAt,value
2023-02-17T00:02:35.035Z,98189.19
2023-02-17T00:05:39.377Z,98186.88
2023-02-17T00:08:40.979Z,98194.63
2023-02-17T00:11:42.456Z,98194.28
2023-02-17T00:14:43.900Z,98192.91
2023-02-17T00:17:45.359Z,98197.41
2023-02-17T00:20:46.793Z,98183.69
2023-02-17T00:23:49.638Z,98201.19
2023-02-17T00:26:51.269Z,98192.75
2023-02-17T00:29:52.770Z,98193.38
2023-02-17T00:32:54.244Z,98188.19
2023-02-17T00:35:55.701Z,98194.28
2023-02-17T00:38:57.915Z,98193.13
2023-02-17T00:41:59.493Z,98198.56
2023-02-17T00:45:04.484Z,98193.63
2023-02-17T00:48:06.889Z,98200.03
2023-02-17T00:51:08.990Z,98189.97
2023-02-17T00:54:10.588Z,98189.81
2023-02-17T00:57:12.126Z,98189.88
2023-02-17T01:00:14.232Z,98187.88
2023-02-17T01:03:15.913Z,98196.34
2023-02-17T01:06:23.460Z,98187.09
2023-02-17T01:09:24.954Z,98196.22
2023-02-17T01:12:26.447Z,98182.03
2023-02-17T01:15:27.897Z,98193.59
2023-02-17T01:18:29.410Z,98182.84
2023-02-17T01:21:32.198Z,98199.88
2023-02-17T01:24:33.868Z,98192.63
2023-02-17T01:27:37.356Z,98182.69
2023-02-17T01:30:38.868Z,98183.84
2023-02-17T01:33:40.854Z,98184.88
2023-02-17T01:36:43.590Z,98179.59
2023-02-17T01:39:45.262Z,98177.75
2023-02-17T01:42:46.762Z,98170.63
2023-02-17T01:45:53.414Z,98175.56
2023-02-17T01:48:54.890Z,98178.22
2023-02-17T01:52:13.015Z,98185.63
2023-02-17T01:55:18.345Z,98195.03
2023-02-17T01:58:21.969Z,98178.28
2023-02-17T02:01:23.777Z,98177.25
2023-02-17T02:04:29.865Z,98189.88
2023-02-17T02:07:36.525Z,98186.88
2023-02-17T02:10:38.529Z,98177.31
2023-02-17T02:13:40.463Z,98180.09
2023-02-17T02:16:57.525Z,98174.66
2023-02-17T02:20:28.122Z,98167.84
2023-02-17T02:24:07.577Z,98168.00
2023-02-17T02:27:34.855Z,98157.91
2023-02-17T02:30:51.457Z,98156.94
2023-02-17T02:33:55.830Z,98141.06
2023-02-17T02:37:08.849Z,98149.16
2023-02-17T02:40:12.538Z,98156.13
2023-02-17T02:43:14.702Z,98150.16
2023-02-17T02:46:16.593Z,98146.66
2023-02-17T02:49:18.096Z,98154.59
2023-02-17T02:52:33.346Z,98162.03
2023-02-17T02:56:23.248Z,98150.63
2023-02-17T02:59:37.347Z,98146.00
2023-02-17T03:02:52.269Z,98149.78
2023-02-17T03:06:12.793Z,98147.31
2023-02-17T03:09:23.077Z,98149.28
2023-02-17T03:12:26.159Z,98140.03
2023-02-17T03:15:33.778Z,98131.56
2023-02-17T03:18:36.358Z,98133.25
2023-02-17T03:21:42.248Z,98132.75
2023-02-17T03:24:43.777Z,98131.13
2023-02-17T03:27:45.278Z,98142.84
2023-02-17T03:30:48.673Z,98125.81
2023-02-17T03:33:50.339Z,98135.41
2023-02-17T03:36:51.834Z,98130.09
2023-02-17T03:39:53.291Z,98127.78
2023-02-17T03:42:57.121Z,98133.06
2023-02-17T03:45:58.670Z,98134.28
2023-02-17T03:49:00.227Z,98129.13
2023-02-17T03:52:01.740Z,98127.00
2023-02-17T03:55:03.356Z,98141.78
2023-02-17T03:58:04.913Z,98129.81
2023-02-17T04:01:08.360Z,98135.59
2023-02-17T04:04:10.039Z,98130.31
2023-02-17T04:07:11.461Z,98137.59
2023-02-17T04:10:12.949Z,98156.13
2023-02-17T04:13:14.352Z,98131.78
2023-02-17T04:16:15.890Z,98136.28
2023-02-17T04:19:18.446Z,98138.25
2023-02-17T04:22:20.734Z,98145.53
2023-02-17T04:25:22.226Z,98141.22
2023-02-17T04:28:23.985Z,98127.66
2023-02-17T04:31:27.987Z,98134.75
2023-02-17T04:34:29.492Z,98126.50
2023-02-17T04:37:30.925Z,98134.88
2023-02-17T04:40:32.587Z,98131.41
2023-02-17T04:43:34.170Z,98139.50
2023-02-17T04:46:35.678Z,98133.91
2023-02-17T04:49:37.189Z,98128.78
2023-02-17T04:52:38.858Z,98138.84
2023-02-17T04:55:41.502Z,98146.28
2023-02-17T04:58:43.052Z,98152.53
2023-02-17T05:01:44.499Z,98146.28
2023-02-17T05:04:46.173Z,98147.59
2023-02-17T05:07:48.410Z,98157.16
2023-02-17T05:10:53.124Z,98147.59
2023-02-17T05:13:54.580Z,98157.31
2023-02-17T05:16:56.053Z,98150.22
2023-02-17T05:19:57.624Z,98145.75
2023-02-17T05:22:59.067Z,98153.50
2023-02-17T05:26:00.604Z,98148.38
2023-02-17T05:29:02.204Z,98139.59
2023-02-17T05:32:03.947Z,98144.44
2023-02-17T05:35:05.681Z,98146.41
2023-02-17T05:38:07.253Z,98136.94
2023-02-17T05:41:08.784Z,98144.88
2023-02-17T05:44:10.244Z,98149.06
2023-02-17T05:47:11.748Z,98145.56
2023-02-17T05:50:13.408Z,98158.47
2023-02-17T05:53:14.872Z,98164.75
2023-02-17T05:56:16.392Z,98155.31
2023-02-17T05:59:18.429Z,98164.56
2023-02-17T06:02:21.150Z,98169.84
2023-02-17T06:05:23.046Z,98172.28
2023-02-17T06:08:24.492Z,98187.63
2023-02-17T06:11:25.901Z,98170.31
2023-02-17T06:14:27.498Z,98173.47
2023-02-17T06:17:29.969Z,98170.47
2023-02-17T06:20:31.495Z,98162.72
2023-02-17T06:23:33.090Z,98181.38
2023-02-17T06:26:34.522Z,98190.97
2023-02-17T06:29:36.091Z,98197.56
2023-02-17T06:32:37.578Z,98195.22
2023-02-17T06:35:39.717Z,98212.34
2023-02-17T06:38:41.193Z,98204.72
2023-02-17T06:41:42.811Z,98235.78
2023-02-17T06:44:44.302Z,98210.63
2023-02-17T06:47:45.819Z,98209.13
2023-02-17T06:50:49.244Z,98216.41
2023-02-17T06:53:50.736Z,98211.94
2023-02-17T06:56:52.222Z,98214.94
2023-02-17T06:59:53.690Z,98213.94
2023-02-17T07:02:55.223Z,98222.88
2023-02-17T07:06:00.108Z,98228.47
2023-02-17T07:09:02.466Z,98226.13
2023-02-17T07:12:04.900Z,98229.78
2023-02-17T07:15:08.301Z,98222.81
2023-02-17T07:18:12.300Z,98226.13
2023-02-17T07:21:13.873Z,98238.91
2023-02-17T07:24:15.357Z,98238.94
2023-02-17T07:27:16.952Z,98240.47
2023-02-17T07:30:18.654Z,98247.75
2023-02-17T07:33:20.106Z,98250.38
2023-02-17T07:36:21.604Z,98253.03
2023-02-17T07:39:23.261Z,98249.88
2023-02-17T07:42:27.356Z,98253.31
2023-02-17T07:45:28.840Z,98267.53
2023-02-17T07:48:30.888Z,98250.31
2023-02-17T07:51:32.404Z,98255.59
2023-02-17T07:54:33.946Z,98272.81
2023-02-17T07:57:35.416Z,98260.97
2023-02-17T08:00:36.865Z,98264.44
2023-02-17T08:03:38.417Z,98266.94
2023-02-17T08:06:40.195Z,98252.13
2023-02-17T08:10:00.031Z,98251.97
2023-02-17T08:13:19.345Z,98258.78
2023-02-17T08:16:20.801Z,98261.56
2023-02-17T08:19:22.597Z,98278.28
2023-02-17T08:22:24.728Z,98270.41
2023-02-17T08:25:26.359Z,98286.00
2023-02-17T08:28:27.907Z,98292.09
2023-02-17T08:31:33.001Z,98291.97
2023-02-17T08:34:35.015Z,98282.72
2023-02-17T08:37:36.486Z,98289.84
2023-02-17T08:40:38.205Z,98272.50
2023-02-17T08:43:40.670Z,98296.19
2023-02-17T08:46:43.463Z,98289.56
2023-02-17T08:49:45.262Z,98294.19
2023-02-17T08:52:47.325Z,98289.06
2023-02-17T08:55:49.890Z,98300.75
2023-02-17T08:58:51.759Z,98334.66
2023-02-17T09:01:53.525Z,98309.81
2023-02-17T09:04:55.215Z,98320.47
2023-02-17T09:07:56.838Z,98320.94
2023-02-17T09:10:59.096Z,98320.81
2023-02-17T09:14:01.411Z,98331.88
2023-02-17T09:17:04.368Z,98333.34
2023-02-17T09:20:16.278Z,98333.22
2023-02-17T09:23:24.522Z,98330.13
2023-02-17T09:26:26.156Z,98331.50
2023-02-17T09:29:27.666Z,98333.84
2023-02-17T09:32:29.324Z,98320.94
2023-02-17T09:35:31.693Z,98339.59
2023-02-17T09:38:33.253Z,98328.19
2023-02-17T09:41:47.221Z,98332.19
2023-02-17T09:44:55.751Z,98326.22
2023-02-17T09:48:02.851Z,98321.47
2023-02-17T09:51:53.923Z,98325.31
2023-02-17T09:55:04.267Z,98326.94
2023-02-17T09:58:17.892Z,98323.88
2023-02-17T10:01:23.314Z,98315.44
2023-02-17T10:04:35.955Z,98325.13
2023-02-17T10:07:47.638Z,98325.78
2023-02-17T10:11:01.613Z,98321.19
2023-02-17T10:14:09.918Z,98326.84
2023-02-17T10:17:32.729Z,98333.44
2023-02-17T10:20:39.850Z,98336.97
2023-02-17T10:23:41.427Z,98329.06
2023-02-17T10:26:54.995Z,98334.88
2023-02-17T10:30:26.248Z,98333.53
2023-02-17T10:34:03.011Z,98358.94
2023-02-17T10:37:14.486Z,98343.19
2023-02-17T10:40:20.467Z,98344.38
2023-02-17T10:43:26.991Z,98349.16
2023-02-17T10:46:31.508Z,98341.50
2023-02-17T10:49:39.670Z,98340.84
2023-02-17T10:52:41.936Z,98340.25
2023-02-17T10:55:54.615Z,98329.19
2023-02-17T10:59:24.039Z,98332.06
2023-02-17T11:02:36.518Z,98333.69
2023-02-17T11:05:38.170Z,98334.28
2023-02-17T11:08:48.902Z,98334.25
2023-02-17T11:12:00.507Z,98334.91
2023-02-17T11:15:04.899Z,98315.88
2023-02-17T11:18:18.243Z,98318.38
2023-02-17T11:21:20.032Z,98323.00
2023-02-17T11:24:22.030Z,98330.94
2023-02-17T11:27:25.168Z,98313.72
2023-02-17T11:30:28.255Z,98311.22
2023-02-17T11:33:40.466Z,98318.50
2023-02-17T11:36:45.191Z,98315.69
2023-02-17T11:39:49.212Z,98319.69
2023-02-17T11:42:58.089Z,98313.72
2023-02-17T11:46:14.994Z,98316.88
2023-02-17T11:49:56.048Z,98306.63
2023-02-17T11:53:18.922Z,98308.59
2023-02-17T11:56:28.335Z,98313.91
2023-02-17T12:00:14.972Z,98313.22
2023-02-17T12:03:58.516Z,98314.56
2023-02-17T12:07:25.100Z,98297.25
2023-02-17T12:10:49.413Z,98297.78
2023-02-17T12:14:31.152Z,98305.63
2023-02-17T12:17:50.782Z,98301.66
2023-02-17T12:21:06.230Z,98303.94
2023-02-17T12:24:26.521Z,98300.31
2023-02-17T12:27:37.021Z,98298.34
2023-02-17T12:30:58.787Z,98292.88
2023-02-17T12:34:39.326Z,98296.50
2023-02-17T12:38:16.352Z,98286.88
2023-02-17T12:41:41.149Z,98289.22
2023-02-17T12:44:45.070Z,98293.50
2023-02-17T12:47:57.276Z,98300.16
2023-02-17T12:51:27.459Z,98292.38
2023-02-17T12:54:47.769Z,98275.34
2023-02-17T12:58:02.619Z,98274.34
2023-02-17T13:01:10.099Z,98268.72
2023-02-17T13:04:16.835Z,98269.44
2023-02-17T13:07:40.321Z,98268.63
2023-02-17T13:10:41.866Z,98262.44
2023-02-17T13:13:43.419Z,98260.81
2023-02-17T13:16:46.301Z,98264.78
2023-02-17T13:19:47.806Z,98260.50
2023-02-17T13:22:49.291Z,98262.47
2023-02-17T13:26:06.690Z,98265.81
2023-02-17T13:29:25.367Z,98263.81
2023-02-17T13:32:30.311Z,98253.38
2023-02-17T13:35:36.965Z,98268.97
2023-02-17T13:38:38.456Z,98254.84
2023-02-17T13:41:48.488Z,98250.72
2023-02-17T13:44:51.183Z,98257.00
2023-02-17T13:47:55.741Z,98249.88
2023-02-17T13:51:09.863Z,98246.75
2023-02-17T13:54:12.433Z,98248.41
2023-02-17T13:57:28.718Z,98235.81
2023-02-17T14:00:31.866Z,98246.41
2023-02-17T14:03:42.237Z,98242.44
2023-02-17T14:06:43.987Z,98248.22
2023-02-17T14:09:53.808Z,98243.75
2023-02-17T14:12:56.538Z,98245.75
2023-02-17T14:16:00.028Z,98247.56
2023-02-17T14:19:17.338Z,98242.25
2023-02-17T14:22:35.135Z,98247.56
2023-02-17T14:25:38.765Z,98246.22
2023-02-17T14:28:40.330Z,98247.22
2023-02-17T14:31:44.913Z,98257.34
2023-02-17T14:34:46.429Z,98255.88
2023-02-17T14:37:48.688Z,98255.38
2023-02-17T14:40:50.826Z,98257.50
2023-02-17T14:43:52.809Z,98269.13
2023-02-17T14:46:54.292Z,98267.97
2023-02-17T14:49:55.952Z,98268.78
2023-02-17T14:52:57.550Z,98276.75
2023-02-17T14:56:21.192Z,98273.44
2023-02-17T14:59:22.667Z,98274.59
2023-02-17T15:02:24.436Z,98268.28
2023-02-17T15:05:26.027Z,98267.81
2023-02-17T15:08:32.633Z,98261.19
2023-02-17T15:11:36.948Z,98263.81
2023-02-17T15:14:38.430Z,98260.34
2023-02-17T15:17:39.930Z,98255.69
2023-02-17T15:20:43.664Z,98256.03
2023-02-17T15:23:45.170Z,98247.34
2023-02-17T15:26:47.931Z,98241.19
2023-02-17T15:29:49.458Z,98233.75
2023-02-17T15:32:51.138Z,98234.19
2023-02-17T15:35:54.314Z,98227.38
2023-02-17T15:38:55.878Z,98226.06
2023-02-17T15:42:03.604Z,98225.31
2023-02-17T15:45:05.361Z,98224.41
2023-02-17T15:48:24.733Z,98208.41
2023-02-17T15:51:26.229Z,98220.34
2023-02-17T15:54:27.709Z,98210.38
2023-02-17T15:57:30.114Z,98206.41
2023-02-17T16:00:34.386Z,98205.16
2023-02-17T16:03:35.956Z,98195.91
2023-02-17T16:06:37.997Z,98207.59
2023-02-17T16:09:39.518Z,98209.00
2023-02-17T16:12:51.568Z,98205.03
2023-02-17T16:15:57.084Z,98207.84
2023-02-17T16:19:02.369Z,98211.69
2023-02-17T16:22:03.940Z,98208.06
2023-02-17T16:25:05.855Z,98212.72
2023-02-17T16:28:14.503Z,98231.78
2023-02-17T16:31:16.285Z,98225.53
2023-02-17T16:34:35.704Z,98233.16
2023-02-17T16:37:37.561Z,98221.03
2023-02-17T16:40:47.203Z,98222.84
2023-02-17T16:43:48.902Z,98213.50
2023-02-17T16:46:54.176Z,98217.34
2023-02-17T16:49:55.723Z,98204.75
2023-02-17T16:53:00.696Z,98208.84
2023-02-17T16:56:13.884Z,98224.09
2023-02-17T16:59:18.591Z,98220.28
2023-02-17T17:02:21.731Z,98220.91
2023-02-17T17:05:24.713Z,98229.06
2023-02-17T17:08:26.146Z,98229.38
2023-02-17T17:11:29.143Z,98233.19
2023-02-17T17:14:30.819Z,98236.97
2023-02-17T17:17:47.500Z,98239.16
2023-02-17T17:20:49.335Z,98245.25
2023-02-17T17:23:50.888Z,98247.09
2023-02-17T17:26:52.557Z,98240.28
2023-02-17T17:29:54.044Z,98242.41
2023-02-17T17:32:55.610Z,98253.38
2023-02-17T17:35:57.136Z,98256.97
2023-02-17T17:39:00.302Z,98253.00
2023-02-17T17:42:01.765Z,98261.97
2023-02-17T17:45:03.354Z,98279.38
2023-02-17T17:48:05.039Z,98290.97
2023-02-17T17:51:06.749Z,98281.03
2023-02-17T17:54:08.593Z,98286.00
2023-02-17T17:57:10.366Z,98286.84
2023-02-17T18:00:15.266Z,98288.47
2023-02-17T18:03:16.679Z,98290.13
2023-02-17T18:06:25.566Z,98296.75
2023-02-17T18:09:32.374Z,98299.53
2023-02-17T18:12:34.683Z,98304.31
2023-02-17T18:15:36.467Z,98295.72
2023-02-17T18:18:38.282Z,98301.16
2023-02-17T18:21:39.900Z,98303.00
2023-02-17T18:24:41.410Z,98307.47
2023-02-17T18:27:45.880Z,98309.09
2023-02-17T18:30:47.510Z,98308.28
2023-02-17T18:33:49.042Z,98316.25
2023-02-17T18:36:51.025Z,98307.31
2023-02-17T18:39:52.456Z,98320.56
2023-02-17T18:42:53.887Z,98298.66
2023-02-17T18:45:55.402Z,98313.06
2023-02-17T18:48:57.128Z,98309.09
2023-02-17T18:51:58.709Z,98308.41
2023-02-17T18:55:00.141Z,98309.25
2023-02-17T18:58:01.653Z,98325.13
2023-02-17T19:01:03.172Z,98320.66
2023-02-17T19:04:05.784Z,98331.09
2023-02-17T19:07:07.371Z,98336.41
2023-02-17T19:10:09.759Z,98330.13
2023-02-17T19:13:11.442Z,98330.94
2023-02-17T19:16:16.787Z,98336.25
2023-02-17T19:19:18.289Z,98346.84
2023-02-17T19:22:20.432Z,98334.91
2023-02-17T19:25:22.008Z,98338.22
2023-02-17T19:28:24.029Z,98344.34
2023-02-17T19:31:25.640Z,98347.66
2023-02-17T19:34:27.777Z,98351.00
2023-02-17T19:37:29.228Z,98363.41
2023-02-17T19:40:30.829Z,98369.69
2023-02-17T19:43:32.970Z,98359.94
2023-02-17T19:46:34.494Z,98373.19
2023-02-17T19:49:36.091Z,98370.53
2023-02-17T19:52:37.700Z,98362.09
2023-02-17T19:55:39.196Z,98371.72
2023-02-17T19:58:41.590Z,98377.19
2023-02-17T20:01:43.506Z,98377.19
2023-02-17T20:04:45.476Z,98375.50
2023-02-17T20:07:46.985Z,98382.19
2023-02-17T20:10:48.687Z,98377.69
2023-02-17T20:13:50.662Z,98382.19
2023-02-17T20:16:53.312Z,98384.50
2023-02-17T20:19:54.807Z,98379.19
2023-02-17T20:22:56.994Z,98388.16
2023-02-17T20:25:59.408Z,98388.44
2023-02-17T20:29:01.836Z,98384.47
2023-02-17T20:32:03.530Z,98386.28
2023-02-17T20:35:05.593Z,98379.47
2023-02-17T20:38:07.963Z,98407.09
2023-02-17T20:41:14.859Z,98395.31
2023-02-17T20:44:17.548Z,98397.28
2023-02-17T20:47:19.164Z,98397.97
2023-02-17T20:50:21.885Z,98392.97
2023-02-17T20:53:24.481Z,98399.94
2023-02-17T20:56:35.376Z,98400.63
2023-02-17T20:59:36.943Z,98395.66
2023-02-17T21:02:39.003Z,98396.50
2023-02-17T21:05:40.572Z,98404.13
2023-02-17T21:08:42.113Z,98406.78
2023-02-17T21:11:44.369Z,98400.28
2023-02-17T21:14:46.226Z,98402.78
2023-02-17T21:17:48.622Z,98405.75
2023-02-17T21:20:50.132Z,98408.91
2023-02-17T21:23:51.679Z,98393.00
2023-02-17T21:26:53.186Z,98396.00
2023-02-17T21:29:54.680Z,98397.63
2023-02-17T21:32:56.563Z,98388.19
2023-02-17T21:35:58.181Z,98401.28
2023-02-17T21:38:59.793Z,98403.78
2023-02-17T21:42:01.237Z,98394.84
2023-02-17T21:45:02.761Z,98398.16
2023-02-17T21:48:05.333Z,98404.31
2023-02-17T21:51:09.452Z,98399.84
2023-02-17T21:54:11.580Z,98401.47
2023-02-17T21:57:13.035Z,98400.66
2023-02-17T22:00:15.382Z,98401.47
2023-02-17T22:03:16.855Z,98404.59
2023-02-17T22:06:24.293Z,98399.47
2023-02-17T22:09:25.740Z,98397.63
2023-02-17T22:12:27.515Z,98397.13
2023-02-17T22:15:29.039Z,98407.72
2023-02-17T22:18:30.518Z,98398.13
2023-02-17T22:21:32.707Z,98404.53
2023-02-17T22:24:34.261Z,98399.41
2023-02-17T22:27:35.758Z,98414.31
2023-02-17T22:30:37.270Z,98405.53
2023-02-17T22:33:38.772Z,98401.88
2023-02-17T22:36:40.313Z,98402.91
2023-02-17T22:39:41.804Z,98399.25
2023-02-17T22:42:43.224Z,98406.22
2023-02-17T22:45:44.697Z,98402.59
2023-02-17T22:48:47.938Z,98403.56
2023-02-17T22:51:49.428Z,98404.72
2023-02-17T22:54:50.955Z,98403.03
2023-02-17T22:57:52.438Z,98402.22
2023-02-17T23:01:06.258Z,98410.31
2023-02-17T23:04:08.141Z,98408.13
2023-02-17T23:07:09.665Z,98406.31
2023-02-17T23:10:11.246Z,98408.63
2023-02-17T23:13:12.789Z,98405.84
2023-02-17T23:16:18.870Z,98400.53
2023-02-17T23:19:22.498Z,98403.53
2023-02-17T23:22:23.998Z,98412.44
2023-02-17T23:25:25.523Z,98408.97
2023-02-17T23:28:27.027Z,98395.56
2023-02-17T23:31:28.540Z,98406.16
2023-02-17T23:34:30.671Z,98404.19
2023-02-17T23:37:32.170Z,98402.53
2023-02-17T23:40:36.825Z,98397.84
2023-02-17T23:43:38.321Z,98386.59
2023-02-17T23:46:41.169Z,98388.59
2023-02-17T23:49:42.702Z,98393.13
2023-02-17T23:52:44.161Z,98384.72
2023-02-17T23:55:45.630Z,98394.00
2023-02-17T23:58:47.148Z,98392.34
